createdAt,value
2023-01-31T00:01:48.149Z,1.95
2023-01-31T00:04:22.192Z,1.96
2023-01-31T00:06:54.983Z,1.92
2023-01-31T00:09:27.726Z,2.04
2023-01-31T00:12:00.435Z,1.96
2023-01-31T00:14:33.249Z,2.07
2023-01-31T00:17:05.983Z,2.04
2023-01-31T00:19:40.106Z,2.05
2023-01-31T00:22:12.987Z,2.05
2023-01-31T00:24:45.773Z,2.09
2023-01-31T00:27:19.699Z,2.09
2023-01-31T00:29:52.589Z,2.02
2023-01-31T00:32:26.845Z,2.11
2023-01-31T00:35:00.995Z,2.12
2023-01-31T00:37:33.725Z,2.25
2023-01-31T00:40:08.449Z,2.27
2023-01-31T00:42:41.386Z,2.35
2023-01-31T00:45:16.343Z,2.03
2023-01-31T00:47:49.076Z,2.11
2023-01-31T00:50:23.206Z,2.39
2023-01-31T00:52:56.070Z,2.36
2023-01-31T00:55:31.854Z,2.41
2023-01-31T00:58:04.801Z,2.31
2023-01-31T01:00:37.700Z,2.13
2023-01-31T01:03:10.700Z,2.25
2023-01-31T01:05:44.927Z,2.03
2023-01-31T01:08:17.915Z,1.82
2023-01-31T01:10:50.987Z,1.84
2023-01-31T01:13:23.846Z,1.75
2023-01-31T01:15:56.715Z,1.75
2023-01-31T01:18:29.650Z,1.90
2023-01-31T01:21:09.716Z,1.81
2023-01-31T01:23:43.940Z,1.74
2023-01-31T01:26:18.425Z,1.84
2023-01-31T01:28:52.723Z,1.79
2023-01-31T01:31:30.636Z,1.77
2023-01-31T01:34:06.942Z,1.91
2023-01-31T01:36:41.991Z,2.04
2023-01-31T01:39:14.783Z,1.80
2023-01-31T01:41:48.911Z,1.55
2023-01-31T01:44:46.212Z,1.62
2023-01-31T01:47:31.644Z,1.64
2023-01-31T01:50:11.513Z,1.64
2023-01-31T01:52:49.181Z,1.65
2023-01-31T01:55:26.138Z,1.75
2023-01-31T01:58:05.596Z,1.71
2023-01-31T02:00:39.143Z,1.74
2023-01-31T02:03:12.750Z,1.77
2023-01-31T02:05:48.123Z,1.79
2023-01-31T02:08:25.438Z,1.83
2023-01-31T02:11:03.166Z,1.76
2023-01-31T02:13:36.635Z,1.82
2023-01-31T02:16:09.749Z,1.84
2023-01-31T02:18:44.052Z,1.95
2023-01-31T02:21:55.398Z,1.87
2023-01-31T02:25:01.001Z,1.95
2023-01-31T02:28:01.951Z,1.88
2023-01-31T02:30:59.383Z,2.16
2023-01-31T02:33:41.752Z,2.05
2023-01-31T02:36:28.574Z,1.86
2023-01-31T02:39:12.070Z,1.95
2023-01-31T02:41:51.561Z,1.92
2023-01-31T02:44:49.939Z,2.14
2023-01-31T02:47:34.431Z,1.98
2023-01-31T02:50:15.243Z,2.09
2023-01-31T02:52:55.294Z,2.15
2023-01-31T02:55:52.912Z,1.76
2023-01-31T02:58:29.834Z,1.97
2023-01-31T03:01:05.324Z,1.93
2023-01-31T03:03:39.539Z,1.93
2023-01-31T03:06:54.803Z,1.84
2023-01-31T03:09:38.663Z,1.76
2023-01-31T03:12:34.358Z,1.66
2023-01-31T03:15:21.805Z,1.61
2023-01-31T03:18:00.763Z,1.82
2023-01-31T03:20:40.506Z,1.64
2023-01-31T03:23:20.452Z,1.80
2023-01-31T03:25:54.403Z,1.92
2023-01-31T03:28:32.670Z,1.80
2023-01-31T03:31:11.747Z,1.87
2023-01-31T03:33:47.246Z,1.99
2023-01-31T03:36:29.801Z,1.81
2023-01-31T03:39:17.809Z,1.66
2023-01-31T03:41:58.532Z,1.73
2023-01-31T03:44:40.762Z,1.55
2023-01-31T03:47:20.218Z,1.65
2023-01-31T03:49:54.833Z,1.50
2023-01-31T03:52:34.041Z,1.70
2023-01-31T03:55:16.108Z,1.58
2023-01-31T03:57:53.599Z,1.54
2023-01-31T04:00:27.934Z,1.56
2023-01-31T04:03:14.966Z,1.60
2023-01-31T04:05:49.291Z,1.85
2023-01-31T04:08:22.901Z,1.83
2023-01-31T04:11:10.126Z,1.66
2023-01-31T04:13:43.973Z,1.57
2023-01-31T04:16:17.150Z,1.87
2023-01-31T04:18:50.413Z,1.91
2023-01-31T04:21:23.306Z,1.99
2023-01-31T04:23:56.092Z,1.79
2023-01-31T04:26:30.223Z,1.77
2023-01-31T04:29:03.495Z,1.82
2023-01-31T04:31:36.764Z,1.91
2023-01-31T04:34:10.346Z,1.91
2023-01-31T04:36:43.281Z,2.06
2023-01-31T04:39:16.490Z,1.91
2023-01-31T04:41:50.734Z,1.87
2023-01-31T04:44:23.620Z,2.13
2023-01-31T04:46:56.562Z,1.84
2023-01-31T04:49:29.619Z,1.90
2023-01-31T04:52:02.553Z,1.91
2023-01-31T04:54:36.638Z,1.81
2023-01-31T04:57:11.038Z,1.91
2023-01-31T04:59:43.881Z,1.86
2023-01-31T05:02:17.932Z,1.96
2023-01-31T05:04:51.067Z,2.00
2023-01-31T05:07:23.868Z,1.86
2023-01-31T05:09:56.660Z,2.02
2023-01-31T05:12:31.606Z,2.05
2023-01-31T05:15:07.333Z,2.17
2023-01-31T05:17:40.316Z,2.04
2023-01-31T05:20:13.298Z,2.19
2023-01-31T05:22:48.349Z,2.03
2023-01-31T05:25:21.470Z,1.95
2023-01-31T05:27:55.756Z,1.95
2023-01-31T05:30:28.739Z,1.87
2023-01-31T05:33:01.722Z,1.96
2023-01-31T05:35:34.634Z,1.86
2023-01-31T05:38:07.661Z,1.92
2023-01-31T05:40:40.538Z,1.82
2023-01-31T05:43:14.760Z,1.97
2023-01-31T05:45:49.348Z,1.80
2023-01-31T05:48:22.937Z,1.73
2023-01-31T05:50:55.720Z,1.70
2023-01-31T05:53:28.489Z,1.66
2023-01-31T05:56:01.613Z,1.67
2023-01-31T05:58:35.959Z,1.71
2023-01-31T06:01:08.942Z,1.57
2023-01-31T06:03:41.723Z,1.65
2023-01-31T06:06:15.126Z,1.66
2023-01-31T06:08:48.405Z,1.63
2023-01-31T06:11:23.656Z,1.71
2023-01-31T06:13:58.834Z,1.73
2023-01-31T06:16:32.043Z,1.81
2023-01-31T06:19:04.976Z,1.81
2023-01-31T06:21:37.729Z,1.78
2023-01-31T06:24:10.807Z,1.74
2023-01-31T06:26:43.642Z,1.73
2023-01-31T06:29:17.974Z,1.73
2023-01-31T06:31:50.927Z,1.84
2023-01-31T06:34:23.780Z,1.81
2023-01-31T06:36:57.158Z,1.87
2023-01-31T06:39:30.582Z,1.67
2023-01-31T06:42:03.399Z,1.66
2023-01-31T06:44:37.905Z,1.69
2023-01-31T06:47:10.827Z,1.68
2023-01-31T06:49:43.762Z,1.81
2023-01-31T06:52:16.735Z,1.63
2023-01-31T06:54:49.702Z,1.63
2023-01-31T06:57:22.526Z,1.66
2023-01-31T06:59:56.946Z,1.62
2023-01-31T07:02:30.218Z,1.50
2023-01-31T07:05:03.126Z,1.43
2023-01-31T07:07:35.971Z,1.50
2023-01-31T07:10:09.675Z,1.50
2023-01-31T07:12:42.429Z,1.50
2023-01-31T07:15:16.700Z,1.53
2023-01-31T07:17:49.437Z,1.61
2023-01-31T07:20:22.218Z,1.64
2023-01-31T07:22:56.927Z,1.60
2023-01-31T07:25:32.463Z,1.49
2023-01-31T07:28:05.982Z,1.74
2023-01-31T07:30:43.730Z,1.62
2023-01-31T07:33:16.566Z,1.63
2023-01-31T07:35:49.695Z,1.47
2023-01-31T07:38:22.485Z,1.46
2023-01-31T07:40:55.245Z,1.68
2023-01-31T07:43:28.757Z,1.68
2023-01-31T07:46:03.237Z,1.61
2023-01-31T07:48:36.139Z,1.55
2023-01-31T07:51:10.153Z,1.70
2023-01-31T07:53:43.960Z,1.70
2023-01-31T07:56:18.909Z,1.71
2023-01-31T07:58:51.919Z,1.60
2023-01-31T08:01:45.296Z,1.71
2023-01-31T08:04:22.887Z,1.67
2023-01-31T08:06:57.049Z,1.83
2023-01-31T08:09:30.850Z,1.78
2023-01-31T08:12:03.827Z,1.95
2023-01-31T08:14:36.588Z,2.01
2023-01-31T08:17:11.333Z,2.02
2023-01-31T08:19:44.124Z,2.08
2023-01-31T08:22:16.991Z,2.01
2023-01-31T08:24:49.960Z,2.03
2023-01-31T08:27:22.870Z,1.90
2023-01-31T08:29:56.427Z,1.94
2023-01-31T08:32:30.860Z,2.08
2023-01-31T08:35:03.884Z,2.01
2023-01-31T08:37:36.714Z,2.15
2023-01-31T08:40:11.016Z,2.17
2023-01-31T08:42:44.216Z,2.25
2023-01-31T08:45:17.393Z,2.27
2023-01-31T08:47:54.692Z,2.18
2023-01-31T08:50:29.507Z,2.32
2023-01-31T08:53:04.333Z,2.34
2023-01-31T08:55:37.765Z,2.54
2023-01-31T08:58:10.535Z,2.58
2023-01-31T09:00:43.333Z,2.59
2023-01-31T09:03:17.979Z,2.71
2023-01-31T09:05:50.767Z,2.58
2023-01-31T09:08:23.538Z,2.65
2023-01-31T09:10:57.008Z,2.51
2023-01-31T09:13:31.311Z,2.67
2023-01-31T09:16:09.099Z,2.65
2023-01-31T09:18:43.872Z,2.67
2023-01-31T09:21:18.643Z,2.68
2023-01-31T09:23:56.687Z,2.65
2023-01-31T09:26:29.844Z,2.85
2023-01-31T09:29:02.747Z,2.80
2023-01-31T09:31:35.582Z,2.74
2023-01-31T09:34:09.667Z,2.71
2023-01-31T09:36:42.444Z,2.82
2023-01-31T09:39:15.717Z,2.82
2023-01-31T09:41:53.626Z,2.76
2023-01-31T09:44:30.787Z,2.72
2023-01-31T09:47:10.555Z,2.88
2023-01-31T09:49:49.286Z,2.87
2023-01-31T09:52:23.679Z,2.85
2023-01-31T09:54:56.539Z,2.97
2023-01-31T09:57:41.420Z,2.99
2023-01-31T10:00:22.474Z,2.90
2023-01-31T10:03:38.872Z,2.94
2023-01-31T10:06:19.723Z,3.02
2023-01-31T10:09:00.626Z,3.08
2023-01-31T10:11:39.222Z,3.09
2023-01-31T10:14:23.026Z,3.14
2023-01-31T10:17:02.849Z,3.20
2023-01-31T10:19:44.676Z,3.06
2023-01-31T10:22:23.059Z,3.10
2023-01-31T10:24:59.847Z,2.98
2023-01-31T10:27:46.166Z,3.17
2023-01-31T10:30:24.899Z,3.74
2023-01-31T10:33:02.147Z,4.03
2023-01-31T10:35:41.439Z,4.05
2023-01-31T10:38:20.424Z,3.69
2023-01-31T10:40:59.878Z,3.76
2023-01-31T10:43:40.864Z,4.08
2023-01-31T10:46:16.371Z,4.19
2023-01-31T10:48:49.615Z,4.13
2023-01-31T10:51:38.792Z,3.97
2023-01-31T10:54:27.723Z,3.76
2023-01-31T10:57:01.476Z,3.93
2023-01-31T10:59:37.262Z,3.83
2023-01-31T11:02:19.909Z,3.77
2023-01-31T11:04:54.396Z,3.69
2023-01-31T11:07:30.817Z,3.62
2023-01-31T11:10:23.118Z,3.68
2023-01-31T11:12:59.744Z,3.65
2023-01-31T11:15:38.920Z,3.35
2023-01-31T11:18:15.937Z,3.35
2023-01-31T11:20:49.080Z,3.23
2023-01-31T11:23:26.069Z,3.25
2023-01-31T11:26:00.969Z,3.26
2023-01-31T11:28:37.562Z,3.21
2023-01-31T11:31:20.889Z,3.20
2023-01-31T11:34:01.614Z,3.22
2023-01-31T11:36:43.381Z,3.26
2023-01-31T11:39:29.041Z,3.32
2023-01-31T11:42:13.676Z,3.32
2023-01-31T11:44:57.521Z,3.41
2023-01-31T11:47:41.436Z,3.45
2023-01-31T11:50:22.499Z,3.39
2023-01-31T11:52:57.773Z,3.38
2023-01-31T11:55:38.557Z,3.38
2023-01-31T11:58:20.606Z,3.34
2023-01-31T12:00:56.934Z,3.33
2023-01-31T12:03:30.952Z,3.31
2023-01-31T12:06:05.922Z,3.31
2023-01-31T12:08:40.553Z,3.30
2023-01-31T12:11:30.007Z,3.31
2023-01-31T12:14:14.147Z,3.27
2023-01-31T12:16:49.413Z,3.25
2023-01-31T12:19:33.115Z,3.26
2023-01-31T12:22:13.420Z,3.26
2023-01-31T12:24:58.244Z,3.23
2023-01-31T12:27:42.412Z,3.22
2023-01-31T12:30:29.293Z,3.18
2023-01-31T12:33:30.556Z,3.17
2023-01-31T12:36:17.528Z,3.16
2023-01-31T12:39:04.227Z,3.11
2023-01-31T12:41:41.227Z,3.12
2023-01-31T12:44:32.315Z,3.15
2023-01-31T12:47:23.346Z,3.14
2023-01-31T12:50:06.346Z,3.15
2023-01-31T12:52:47.852Z,3.14
2023-01-31T12:55:29.797Z,3.20
2023-01-31T12:58:19.821Z,3.15
2023-01-31T13:00:59.811Z,3.14
2023-01-31T13:03:44.288Z,3.15
2023-01-31T13:06:21.178Z,3.21
2023-01-31T13:09:07.854Z,3.22
2023-01-31T13:11:48.323Z,3.22
2023-01-31T13:14:23.982Z,3.26
2023-01-31T13:17:01.362Z,3.29
2023-01-31T13:19:40.612Z,3.34
2023-01-31T13:22:19.813Z,3.36
2023-01-31T13:24:59.756Z,3.39
2023-01-31T13:27:39.317Z,3.37
2023-01-31T13:30:23.797Z,3.41
2023-01-31T13:33:00.862Z,3.44
2023-01-31T13:35:42.107Z,3.46
2023-01-31T13:38:21.293Z,3.42
2023-01-31T13:40:55.820Z,3.48
2023-01-31T13:43:28.599Z,3.50
2023-01-31T13:46:05.429Z,3.47
2023-01-31T13:48:43.590Z,3.49
2023-01-31T13:51:22.718Z,3.45
2023-01-31T13:54:02.749Z,3.39
2023-01-31T13:56:39.807Z,3.42
2023-01-31T13:59:12.628Z,3.45
2023-01-31T14:01:49.210Z,3.49
2023-01-31T14:04:31.586Z,3.49
2023-01-31T14:07:26.208Z,3.50
2023-01-31T14:10:38.996Z,3.62
2023-01-31T14:13:26.904Z,3.64
2023-01-31T14:16:00.628Z,3.69
2023-01-31T14:18:44.191Z,3.71
2023-01-31T14:21:49.443Z,3.76
2023-01-31T14:25:05.131Z,3.79
2023-01-31T14:27:42.927Z,3.79
2023-01-31T14:30:38.104Z,3.78
2023-01-31T14:33:37.737Z,3.78
2023-01-31T14:36:45.916Z,3.81
2023-01-31T14:39:44.778Z,3.80
2023-01-31T14:42:40.137Z,3.81
2023-01-31T14:45:34.350Z,3.79
2023-01-31T14:48:19.787Z,3.79
2023-01-31T14:51:14.417Z,3.82
2023-01-31T14:54:15.991Z,3.82
2023-01-31T14:57:14.587Z,3.77
2023-01-31T14:59:55.203Z,3.76
2023-01-31T15:02:42.771Z,3.67
2023-01-31T15:05:19.733Z,3.67
2023-01-31T15:08:05.117Z,3.69
2023-01-31T15:11:03.135Z,3.74
2023-01-31T15:13:47.217Z,3.65
2023-01-31T15:16:28.122Z,3.66
2023-01-31T15:19:07.931Z,3.64
2023-01-31T15:21:50.424Z,3.62
2023-01-31T15:24:27.018Z,3.58
2023-01-31T15:27:01.617Z,3.56
2023-01-31T15:29:46.252Z,3.62
2023-01-31T15:32:22.847Z,3.63
2023-01-31T15:35:02.810Z,3.69
2023-01-31T15:37:38.173Z,3.72
2023-01-31T15:40:19.313Z,3.74
2023-01-31T15:42:52.549Z,3.74
2023-01-31T15:45:27.092Z,3.70
2023-01-31T15:48:01.347Z,3.71
2023-01-31T15:50:34.895Z,3.69
2023-01-31T15:53:17.118Z,3.73
2023-01-31T15:55:52.032Z,3.68
2023-01-31T15:58:27.833Z,3.64
2023-01-31T16:01:02.605Z,3.60
2023-01-31T16:03:43.021Z,3.65
2023-01-31T16:06:20.632Z,3.57
2023-01-31T16:09:03.816Z,3.57
2023-01-31T16:11:38.547Z,3.58
2023-01-31T16:14:12.930Z,3.57
2023-01-31T16:16:48.591Z,3.61
2023-01-31T16:19:26.654Z,3.59
2023-01-31T16:22:00.063Z,3.62
2023-01-31T16:24:34.314Z,3.64
2023-01-31T16:27:09.522Z,3.63
2023-01-31T16:29:44.405Z,3.69
2023-01-31T16:32:22.393Z,3.65
2023-01-31T16:34:57.868Z,3.65
2023-01-31T16:37:33.804Z,3.64
2023-01-31T16:40:20.901Z,3.65
2023-01-31T16:43:10.546Z,3.52
2023-01-31T16:45:51.781Z,3.51
2023-01-31T16:48:27.758Z,3.51
2023-01-31T16:51:02.500Z,3.50
2023-01-31T16:53:39.996Z,3.50
2023-01-31T16:56:23.823Z,3.45
2023-01-31T16:58:58.573Z,3.47
2023-01-31T17:01:33.553Z,3.46
2023-01-31T17:04:20.433Z,3.45
2023-01-31T17:07:04.011Z,3.51
2023-01-31T17:09:36.899Z,3.54
2023-01-31T17:12:19.718Z,3.57
2023-01-31T17:14:57.138Z,3.56
2023-01-31T17:17:34.303Z,3.58
2023-01-31T17:20:08.149Z,3.58
2023-01-31T17:22:42.220Z,3.61
2023-01-31T17:25:19.712Z,3.65
2023-01-31T17:27:54.114Z,3.64
2023-01-31T17:30:27.936Z,3.66
2023-01-31T17:33:01.117Z,3.66
2023-01-31T17:35:37.524Z,3.70
2023-01-31T17:38:10.370Z,3.72
2023-01-31T17:40:44.966Z,3.68
2023-01-31T17:43:22.440Z,3.71
2023-01-31T17:45:55.351Z,3.75
2023-01-31T17:48:28.134Z,3.71
2023-01-31T17:51:00.978Z,3.75
2023-01-31T17:53:40.491Z,3.73
2023-01-31T17:56:20.973Z,3.72
2023-01-31T17:58:55.189Z,3.69
2023-01-31T18:01:27.969Z,3.67
2023-01-31T18:04:00.817Z,3.67
2023-01-31T18:06:34.269Z,3.68
2023-01-31T18:09:09.132Z,3.66
2023-01-31T18:11:43.827Z,3.68
2023-01-31T18:14:18.066Z,3.66
2023-01-31T18:16:51.394Z,3.66
2023-01-31T18:19:24.183Z,3.70
2023-01-31T18:21:57.200Z,3.72
2023-01-31T18:24:31.128Z,3.75
2023-01-31T18:27:03.936Z,3.70
2023-01-31T18:29:38.039Z,3.76
2023-01-31T18:32:11.001Z,3.72
2023-01-31T18:34:43.824Z,3.73
2023-01-31T18:37:20.307Z,3.64
2023-01-31T18:39:54.061Z,3.64
2023-01-31T18:42:26.959Z,3.71
2023-01-31T18:45:02.584Z,3.64
2023-01-31T18:47:35.439Z,3.66
2023-01-31T18:50:09.538Z,3.68
2023-01-31T18:52:43.927Z,3.71
2023-01-31T18:55:16.787Z,3.76
2023-01-31T18:57:49.591Z,3.74
2023-01-31T19:00:24.567Z,3.76
2023-01-31T19:02:58.506Z,3.69
2023-01-31T19:05:31.425Z,3.71
2023-01-31T19:08:04.244Z,3.80
2023-01-31T19:10:37.068Z,3.73
2023-01-31T19:13:09.844Z,3.72
2023-01-31T19:15:43.992Z,3.71
2023-01-31T19:18:17.248Z,3.73
2023-01-31T19:20:50.007Z,3.75
2023-01-31T19:23:23.513Z,3.73
2023-01-31T19:25:56.498Z,3.83
2023-01-31T19:28:29.273Z,3.80
2023-01-31T19:31:06.449Z,3.83
2023-01-31T19:33:40.106Z,3.83
2023-01-31T19:36:14.243Z,3.83
2023-01-31T19:38:47.867Z,3.80
2023-01-31T19:41:22.204Z,3.83
2023-01-31T19:43:57.268Z,3.85
2023-01-31T19:46:33.095Z,3.79
2023-01-31T19:49:06.567Z,3.86
2023-01-31T19:51:39.350Z,3.82
2023-01-31T19:54:15.696Z,3.82
2023-01-31T19:56:48.464Z,3.88
2023-01-31T19:59:21.264Z,3.88
2023-01-31T20:01:55.452Z,3.85
2023-01-31T20:04:30.825Z,3.90
2023-01-31T20:07:03.599Z,3.90
2023-01-31T20:09:36.405Z,3.95
2023-01-31T20:12:09.306Z,3.97
2023-01-31T20:14:42.079Z,4.05
2023-01-31T20:17:16.232Z,3.97
2023-01-31T20:19:48.992Z,3.97
2023-01-31T20:22:22.939Z,3.97
2023-01-31T20:24:57.054Z,3.99
2023-01-31T20:27:33.686Z,3.95
2023-01-31T20:30:07.913Z,3.94
2023-01-31T20:32:42.004Z,3.96
2023-01-31T20:35:14.849Z,3.96
2023-01-31T20:37:47.777Z,4.00
2023-01-31T20:40:21.013Z,3.95
2023-01-31T20:42:53.955Z,3.96
2023-01-31T20:45:29.078Z,4.02
2023-01-31T20:48:05.885Z,3.97
2023-01-31T20:50:40.549Z,3.95
2023-01-31T20:53:19.375Z,4.05
2023-01-31T20:55:57.624Z,3.99
2023-01-31T20:58:32.397Z,4.01
2023-01-31T21:01:06.842Z,3.99
2023-01-31T21:03:41.167Z,4.01
2023-01-31T21:06:14.057Z,4.01
2023-01-31T21:08:48.537Z,4.00
2023-01-31T21:11:21.549Z,4.00
2023-01-31T21:13:54.362Z,4.03
2023-01-31T21:16:27.419Z,4.00
2023-01-31T21:19:01.568Z,4.11
2023-01-31T21:21:34.369Z,4.07
2023-01-31T21:24:08.350Z,4.07
2023-01-31T21:26:41.191Z,4.16
2023-01-31T21:29:14.039Z,4.13
2023-01-31T21:31:46.987Z,4.08
2023-01-31T21:34:23.032Z,4.14
2023-01-31T21:36:57.737Z,4.12
2023-01-31T21:39:30.522Z,4.27
2023-01-31T21:42:19.512Z,4.19
2023-01-31T21:44:52.355Z,4.14
2023-01-31T21:47:25.191Z,4.14
2023-01-31T21:49:59.335Z,4.11
2023-01-31T21:52:32.263Z,4.16
2023-01-31T21:55:05.607Z,4.12
2023-01-31T21:57:38.544Z,4.10
2023-01-31T22:00:12.783Z,4.15
2023-01-31T22:02:45.601Z,4.17
2023-01-31T22:05:19.799Z,4.13
2023-01-31T22:07:52.553Z,4.09
2023-01-31T22:10:25.339Z,4.11
2023-01-31T22:12:58.148Z,4.06
2023-01-31T22:15:30.972Z,4.06
2023-01-31T22:18:03.746Z,4.05
2023-01-31T22:20:38.716Z,4.04
2023-01-31T22:23:11.595Z,4.04
2023-01-31T22:25:44.345Z,4.02
2023-01-31T22:28:17.338Z,4.11
2023-01-31T22:30:57.025Z,4.07
2023-01-31T22:33:30.458Z,4.13
2023-01-31T22:36:05.578Z,4.06
2023-01-31T22:38:38.949Z,4.10
2023-01-31T22:41:13.650Z,4.13
2023-01-31T22:43:48.160Z,4.11
2023-01-31T22:46:23.596Z,4.10
2023-01-31T22:48:56.658Z,4.13
2023-01-31T22:51:31.163Z,4.18
2023-01-31T22:54:03.975Z,4.16
2023-01-31T22:56:36.759Z,4.12
2023-01-31T22:59:10.855Z,4.08
2023-01-31T23:01:43.798Z,4.07
2023-01-31T23:04:19.150Z,4.15
2023-01-31T23:06:53.400Z,4.16
2023-01-31T23:09:26.229Z,4.14
2023-01-31T23:11:58.995Z,4.10
2023-01-31T23:14:32.150Z,4.12
2023-01-31T23:17:22.406Z,4.14
2023-01-31T23:19:57.188Z,4.06
2023-01-31T23:22:31.387Z,4.08
2023-01-31T23:25:05.407Z,4.11
2023-01-31T23:27:38.712Z,4.15
2023-01-31T23:30:13.631Z,4.09
2023-01-31T23:32:46.432Z,4.11
2023-01-31T23:35:19.399Z,4.11
2023-01-31T23:37:53.943Z,4.11
2023-01-31T23:40:26.713Z,4.11
2023-01-31T23:42:59.564Z,4.14
2023-01-31T23:45:32.389Z,4.11
2023-01-31T23:48:05.838Z,4.16
2023-01-31T23:50:38.621Z,4.19
2023-01-31T23:53:12.713Z,4.10
2023-01-31T23:55:45.458Z,4.12
2023-01-31T23:58:18.259Z,4.16
